Hopeman, United Kingdom
Current Conditions -  °F | °C
As of 4:50 PM on Tuesday 21 Oct 2014 (Local Time) from EGQS Reporting Station
Broken Clouds Broken Clouds  
Wind Chill: 37°   Ceiling: 5000
Heat Index: 46°   Visibility: 6mi
Dew Point: 30°   Wind: 35mph
Humidity: 53%   Direction: 310°NW
Pressure: 29.59"   Gusts: NA
Location:  57.71°N, 3.43°W
Report Text: EGQS 211550Z 31030KT 9999 FEW025 BKN050 08/M01 Q1002 BLU
Loading
Personal Weather Stations






























Interactive Weather Map
Tropical Storm Tracking
New forecast layout! Learn more

10-Day Weather Forecast

Advertisements
Track Severe Weather on mobile